Time;durP1;ratioP1;P1;durP2;ratioP2;P2;SDS_P1;SDS_P2;PMS_P1;PMS_P2;Temp;Humidity;BMP_temperature;BMP_pressure;BME280_temperature;BME280_humidity;BME280_pressure;Samples;Min_cycle;Max_cycle;Signal;HPM_P1;HPM_P2
2022/06/26 00:02:11;;;;;;;3.15;2.95;;;23.00;83.80;;;;;;6242509;23;20050;-92
2022/06/26 00:04:37;;;;;;;4.10;3.70;;;22.90;84.40;;;;;;6244475;22;20035;-90
2022/06/26 00:07:03;;;;;;;4.13;3.55;;;22.80;84.90;;;;;;6244561;22;20008;-91
2022/06/26 00:09:29;;;;;;;4.03;3.65;;;22.80;85.60;;;;;;6244718;23;20000;-91
2022/06/26 00:11:56;;;;;;;4.00;3.60;;;22.70;85.90;;;;;;6244744;22;20036;-92
2022/06/26 00:14:22;;;;;;;4.22;3.75;;;22.70;86.50;;;;;;6244391;23;20015;-92
2022/06/26 00:16:49;;;;;;;4.97;3.95;;;22.60;87.20;;;;;;6242212;23;20146;-93
2022/06/26 00:19:15;;;;;;;4.03;3.45;;;22.50;87.80;;;;;;6244548;22;20008;-92
2022/06/26 00:21:41;;;;;;;4.03;3.63;;;22.40;88.00;;;;;;6244403;22;20015;-91
2022/06/26 00:24:07;;;;;;;4.68;4.00;;;22.30;88.40;;;;;;6215241;23;20378;-86
2022/06/26 00:26:33;;;;;;;3.90;3.50;;;22.20;88.80;;;;;;6238050;22;20019;-87
2022/06/26 00:28:59;;;;;;;5.10;3.83;;;22.20;89.00;;;;;;6236327;23;20054;-90
2022/06/26 00:31:25;;;;;;;3.78;3.08;;;22.20;88.40;;;;;;6236241;23;20012;-87
2022/06/26 00:33:51;;;;;;;5.45;3.70;;;22.30;87.40;;;;;;6239173;23;20038;-87
2022/06/26 00:36:17;;;;;;;3.58;3.28;;;22.40;86.90;;;;;;6236098;23;20008;-86
2022/06/26 00:38:43;;;;;;;4.28;3.22;;;22.40;86.60;;;;;;6236075;23;20089;-87
2022/06/26 00:41:08;;;;;;;4.40;3.42;;;22.30;86.80;;;;;;6212033;23;20008;-86
2022/06/26 00:43:34;;;;;;;4.05;3.67;;;22.20;87.40;;;;;;6238250;23;20620;-87
2022/06/26 00:46:00;;;;;;;4.15;3.50;;;22.00;87.80;;;;;;6242214;23;20085;-91
2022/06/26 00:48:26;;;;;;;5.03;3.78;;;21.90;88.80;;;;;;6217008;23;20032;-91
2022/06/26 00:50:55;;;;;;;3.80;3.40;;;22.00;89.00;;;;;;6242460;23;20012;-89
2022/06/26 00:53:21;;;;;;;4.35;3.42;;;22.10;87.80;;;;;;6244077;22;20020;-91
2022/06/26 00:55:48;;;;;;;5.07;4.07;;;22.20;86.00;;;;;;6239643;22;20421;-91
2022/06/26 00:58:15;;;;;;;3.78;3.47;;;22.40;85.90;;;;;;6239294;22;20014;-90
2022/06/26 01:00:41;;;;;;;5.70;4.20;;;22.40;86.40;;;;;;6238603;23;20008;-91
2022/06/26 01:03:08;;;;;;;4.20;3.80;;;22.40;86.90;;;;;;6240808;23;20008;-92
2022/06/26 01:05:34;;;;;;;4.90;4.40;;;22.30;87.60;;;;;;6266408;22;20023;-86
2022/06/26 01:08:01;;;;;;;4.53;4.13;;;22.20;88.50;;;;;;6215536;23;20011;-92
2022/06/26 01:10:28;;;;;;;4.97;4.50;;;22.20;88.90;;;;;;6217141;23;20552;-92
2022/06/26 01:12:54;;;;;;;4.40;4.00;;;22.10;89.10;;;;;;6243588;22;20019;-91
2022/06/26 01:15:20;;;;;;;4.25;3.85;;;22.10;89.60;;;;;;6242260;23;20008;-91
2022/06/26 01:17:47;;;;;;;4.20;3.80;;;22.00;89.50;;;;;;6242091;23;20008;-92
2022/06/26 01:20:14;;;;;;;4.38;3.97;;;21.90;89.60;;;;;;6241901;23;20011;-91
2022/06/26 01:22:40;;;;;;;5.43;4.45;;;22.00;89.80;;;;;;6239843;23;20016;-86
2022/06/26 01:25:07;;;;;;;4.90;4.40;;;22.00;88.70;;;;;;6238602;23;20034;-91
2022/06/26 01:27:41;;;;;;;5.00;4.50;;;21.90;88.50;;;;;;6242425;23;19996;-93
2022/06/26 01:30:08;;;;;;;4.93;4.43;;;21.70;89.00;;;;;;6245204;22;20000;-92
2022/06/26 01:32:34;;;;;;;5.05;4.07;;;21.70;89.30;;;;;;6244289;23;20087;-91
2022/06/26 01:35:00;;;;;;;5.68;4.57;;;21.70;89.40;;;;;;6246604;23;20027;-92
2022/06/26 01:37:27;;;;;;;7.10;4.32;;;21.70;88.80;;;;;;6219460;23;20440;-91
2022/06/26 01:39:53;;;;;;;4.78;4.28;;;21.60;88.70;;;;;;6244445;23;20012;-92
2022/06/26 01:42:19;;;;;;;5.22;4.38;;;21.60;89.20;;;;;;6237933;23;20000;-87
2022/06/26 01:44:45;;;;;;;7.70;4.80;;;21.40;89.60;;;;;;6237641;23;20385;-88
2022/06/26 01:47:12;;;;;;;4.85;4.35;;;21.30;90.20;;;;;;6239993;22;20031;-87
2022/06/26 01:49:39;;;;;;;6.38;4.32;;;21.30;90.30;;;;;;6211466;23;20009;-86
2022/06/26 01:52:04;;;;;;;5.13;4.60;;;21.20;90.40;;;;;;6237137;23;20062;-87
2022/06/26 01:54:34;;;;;;;4.97;4.00;;;21.10;90.50;;;;;;6237261;23;20089;-88
2022/06/26 01:57:00;;;;;;;5.72;4.53;;;21.00;90.70;;;;;;6238110;23;20008;-86
2022/06/26 01:59:27;;;;;;;6.20;5.60;;;21.00;91.20;;;;;;6237810;23;20042;-88
2022/06/26 02:01:53;;;;;;;5.90;5.30;;;20.90;91.40;;;;;;6262933;22;20042;-86
2022/06/26 02:04:20;;;;;;;7.30;6.30;;;20.90;91.60;;;;;;6212599;23;20373;-89
2022/06/26 02:06:46;;;;;;;6.05;5.40;;;21.00;91.80;;;;;;6237244;23;20066;-87
2022/06/26 02:14:47;;;;;;;7.00;4.95;;;21.00;91.60;;;;;;6237388;23;20008;-87
2022/06/26 02:17:14;;;;;;;5.93;5.20;;;21.00;91.60;;;;;;6237898;23;20063;-87
2022/06/26 02:19:40;;;;;;;6.22;5.63;;;21.00;92.00;;;;;;6237712;23;20035;-86
2022/06/26 02:22:06;;;;;;;6.30;5.38;;;20.90;92.30;;;;;;6263960;22;20058;-87
2022/06/26 02:24:32;;;;;;;6.05;5.45;;;20.90;92.40;;;;;;6238378;23;20008;-87
2022/06/26 02:26:58;;;;;;;6.72;6.03;;;20.90;92.20;;;;;;6237670;23;20015;-88
2022/06/26 02:29:23;;;;;;;6.30;5.55;;;20.90;92.40;;;;;;6237075;23;20008;-87
2022/06/26 02:31:49;;;;;;;10.70;6.18;;;20.90;92.40;;;;;;6237436;23;20004;-87
2022/06/26 02:34:15;;;;;;;12.80;5.72;;;21.00;92.30;;;;;;6237500;23;20016;-86
2022/06/26 02:36:43;;;;;;;6.40;5.80;;;21.00;92.20;;;;;;6237785;23;20019;-87
2022/06/26 02:39:09;;;;;;;6.70;5.97;;;21.00;92.30;;;;;;6237038;23;20012;-87
2022/06/26 02:41:34;;;;;;;8.68;6.28;;;21.00;92.40;;;;;;6237172;23;20498;-88
2022/06/26 02:44:00;;;;;;;8.60;5.55;;;21.00;92.50;;;;;;6237906;23;20015;-87
2022/06/26 02:46:27;;;;;;;7.25;6.25;;;21.10;92.70;;;;;;6238335;23;20012;-87
2022/06/26 02:48:54;;;;;;;7.18;6.43;;;21.10;92.20;;;;;;6237794;23;20015;-87
2022/06/26 02:51:20;;;;;;;7.60;6.63;;;21.10;92.30;;;;;;6238323;23;20095;-87
2022/06/26 02:53:46;;;;;;;7.90;6.00;;;21.10;92.20;;;;;;6237564;23;20063;-86
2022/06/26 02:56:12;;;;;;;7.85;6.10;;;21.10;92.30;;;;;;6212688;23;20012;-87
2022/06/26 02:58:40;;;;;;;8.30;7.15;;;21.10;92.40;;;;;;6237801;23;20328;-86
2022/06/26 03:01:06;;;;;;;7.63;6.82;;;21.10;92.40;;;;;;6238413;23;20018;-88
2022/06/26 03:03:34;;;;;;;7.50;6.70;;;21.10;92.40;;;;;;6238617;23;20031;-87
2022/06/26 03:06:01;;;;;;;7.20;6.13;;;21.10;92.40;;;;;;6237540;23;20008;-88
2022/06/26 03:08:27;;;;;;;7.50;6.45;;;21.30;92.00;;;;;;6263173;22;20008;-87
2022/06/26 03:10:54;;;;;;;7.45;6.68;;;21.40;91.50;;;;;;6237525;23;20012;-87
2022/06/26 03:13:20;;;;;;;6.60;5.88;;;21.50;90.90;;;;;;6236870;23;20012;-87
2022/06/26 03:15:46;;;;;;;6.10;5.40;;;21.60;90.70;;;;;;6235139;23;20015;-88
2022/06/26 03:18:15;;;;;;;8.57;5.50;;;21.80;90.30;;;;;;6209509;23;20338;-88
2022/06/26 03:20:43;;;;;;;4.97;4.47;;;21.90;89.10;;;;;;6234197;23;20026;-88
2022/06/26 03:23:11;;;;;;;7.35;5.25;;;22.10;87.40;;;;;;6209990;23;20035;-86
2022/06/26 03:25:37;;;;;;;6.40;5.43;;;22.20;87.10;;;;;;6237122;23;20439;-88
2022/06/26 03:28:03;;;;;;;9.48;6.10;;;22.30;86.40;;;;;;6237060;23;20012;-87
2022/06/26 03:30:30;;;;;;;5.93;5.32;;;22.30;86.90;;;;;;6237587;23;20004;-88
2022/06/26 03:32:56;;;;;;;9.05;5.90;;;22.00;88.00;;;;;;6236655;23;20483;-87
2022/06/26 03:35:22;;;;;;;6.38;5.78;;;22.00;88.60;;;;;;6240883;23;20081;-92
2022/06/26 03:37:48;;;;;;;6.30;5.70;;;22.00;88.70;;;;;;6242520;23;20015;-92
2022/06/26 03:40:14;;;;;;;6.80;5.75;;;22.10;88.40;;;;;;6216784;23;20456;-92
2022/06/26 03:42:40;;;;;;;6.20;5.55;;;22.20;88.50;;;;;;6241963;23;20004;-91
2022/06/26 03:45:08;;;;;;;8.32;7.03;;;22.30;88.00;;;;;;6243471;23;20046;-92
2022/06/26 03:47:34;;;;;;;10.13;7.00;;;22.30;88.00;;;;;;6243645;22;19996;-92
2022/06/26 03:50:00;;;;;;;8.13;7.05;;;22.30;88.00;;;;;;6242638;23;20019;-93
2022/06/26 03:52:26;;;;;;;7.43;6.72;;;22.30;88.40;;;;;;6238877;23;20014;-88
2022/06/26 03:54:57;;;;;;;8.10;6.55;;;22.30;88.90;;;;;;6236970;23;20019;-87
2022/06/26 03:57:24;;;;;;;8.25;7.03;;;22.20;89.50;;;;;;6236688;23;20178;-87
2022/06/26 03:59:52;;;;;;;7.70;6.97;;;22.00;90.10;;;;;;6236107;23;20004;-87
2022/06/26 04:02:30;;;;;;;8.38;7.35;;;21.70;90.80;;;;;;6237977;23;20427;-87
2022/06/26 04:04:56;;;;;;;9.68;8.10;;;21.60;91.20;;;;;;6211634;23;20004;-87
2022/06/26 04:07:23;;;;;;;10.07;8.48;;;21.50;91.70;;;;;;6236900;23;20015;-88
2022/06/26 04:10:05;;;;;;;8.77;7.97;;;21.40;92.20;;;;;;6242467;23;19996;-91
2022/06/26 04:12:31;;;;;;;9.05;8.25;;;21.40;91.90;;;;;;6217966;23;20115;-92
2022/06/26 04:14:57;;;;;;;8.93;8.02;;;21.30;92.20;;;;;;6244083;22;20028;-93
2022/06/26 04:17:23;;;;;;;9.02;8.13;;;21.40;92.40;;;;;;6217259;23;20008;-92
2022/06/26 04:19:55;;;;;;;14.50;9.90;;;21.30;92.60;;;;;;6242440;23;20647;-92
2022/06/26 04:22:22;;;;;;;13.07;9.55;;;21.40;92.50;;;;;;6242669;23;20010;-93
2022/06/26 04:24:48;;;;;;;11.32;8.68;;;21.60;92.30;;;;;;6242467;23;20008;-86
2022/06/26 04:27:18;;;;;;;10.98;8.52;;;21.80;91.70;;;;;;6237277;23;20486;-87
2022/06/26 04:29:44;;;;;;;10.57;8.90;;;21.90;91.50;;;;;;6236370;23;20008;-87
2022/06/26 04:32:11;;;;;;;10.48;9.10;;;21.90;91.40;;;;;;6236280;23;20000;-88
2022/06/26 04:34:41;;;;;;;9.75;8.75;;;22.10;91.10;;;;;;6235702;23;20419;-87
2022/06/26 04:37:07;;;;;;;11.40;9.15;;;22.20;90.60;;;;;;6236073;23;20015;-92
2022/06/26 04:39:33;;;;;;;11.63;10.02;;;22.30;90.40;;;;;;6239985;23;20027;-92
2022/06/26 04:42:03;;;;;;;9.80;8.80;;;22.50;90.30;;;;;;6240330;23;20015;-92
2022/06/26 04:44:34;;;;;;;10.40;9.23;;;22.60;89.70;;;;;;6242357;23;20012;-92
2022/06/26 04:47:01;;;;;;;9.73;8.82;;;22.70;89.20;;;;;;6217194;23;20031;-92
2022/06/26 04:49:31;;;;;;;9.13;8.27;;;22.80;89.40;;;;;;6241029;23;20371;-88
2022/06/26 04:51:57;;;;;;;9.88;8.88;;;22.80;89.50;;;;;;6236087;23;20100;-87
2022/06/26 04:54:33;;;;;;;9.70;8.70;;;23.00;89.20;;;;;;6236476;23;20023;-87
2022/06/26 04:56:59;;;;;;;10.23;8.55;;;23.00;89.00;;;;;;6236969;23;20012;-87
2022/06/26 04:59:26;;;;;;;10.25;8.88;;;23.00;88.70;;;;;;6211180;23;20038;-87
2022/06/26 05:02:00;;;;;;;12.02;10.10;;;23.10;88.20;;;;;;6237133;23;20015;-87
2022/06/26 05:04:42;;;;;;;10.20;9.20;;;23.10;88.40;;;;;;6238595;23;20026;-88
2022/06/26 05:07:35;;;;;;;11.63;10.52;;;23.10;88.50;;;;;;6226103;22;20012;-88
2022/06/26 05:10:02;;;;;;;11.50;9.85;;;23.00;88.80;;;;;;6213174;23;20015;-87
2022/06/26 05:12:34;;;;;;;11.52;10.27;;;23.00;89.30;;;;;;6236803;23;20012;-86
2022/06/26 05:15:10;;;;;;;11.38;10.18;;;23.00;89.80;;;;;;6236919;23;20399;-85
2022/06/26 05:17:40;;;;;;;12.13;10.25;;;23.10;88.90;;;;;;6248841;22;20008;-85
2022/06/26 05:20:07;;;;;;;11.52;10.32;;;23.20;88.30;;;;;;6236488;23;20059;-86
2022/06/26 05:22:33;;;;;;;11.45;10.27;;;23.30;87.80;;;;;;6262210;22;20009;-87
2022/06/26 05:24:59;;;;;;;11.45;10.25;;;23.50;87.40;;;;;;6248660;22;20426;-86
2022/06/26 05:27:25;;;;;;;14.02;10.32;;;23.60;87.40;;;;;;6238010;23;20012;-86
2022/06/26 05:29:51;;;;;;;11.88;9.95;;;23.80;86.10;;;;;;6237435;23;20040;-86
2022/06/26 05:32:17;;;;;;;10.27;9.18;;;23.90;85.50;;;;;;6237550;23;20004;-86
2022/06/26 05:34:43;;;;;;;10.68;9.50;;;24.00;84.60;;;;;;6238385;23;20012;-86
2022/06/26 05:37:10;;;;;;;12.05;10.65;;;24.10;84.60;;;;;;6236769;23;20099;-87
2022/06/26 05:39:37;;;;;;;11.40;10.25;;;24.20;85.00;;;;;;6235596;23;20019;-87
2022/06/26 05:42:05;;;;;;;11.27;9.95;;;24.30;84.40;;;;;;6236546;23;20109;-87
2022/06/26 05:44:31;;;;;;;12.68;9.85;;;24.30;84.40;;;;;;6235483;23;20012;-87
2022/06/26 05:47:00;;;;;;;10.90;9.80;;;24.40;84.70;;;;;;6266315;22;20008;-92
2022/06/26 05:49:49;;;;;;;12.13;10.27;;;24.50;83.60;;;;;;6211622;23;20087;-92
2022/06/26 05:52:34;;;;;;;11.77;10.57;;;24.50;82.80;;;;;;6245635;23;20837;-92
2022/06/26 05:55:20;;;;;;;14.00;11.48;;;24.60;82.60;;;;;;6244671;23;20021;-92
2022/06/26 05:58:01;;;;;;;13.00;11.20;;;24.70;83.00;;;;;;6243702;23;20004;-91
2022/06/26 06:00:41;;;;;;;10.70;9.60;;;24.70;82.20;;;;;;6243230;23;20443;-90
2022/06/26 06:03:07;;;;;;;10.55;9.25;;;24.70;81.10;;;;;;6217890;23;20087;-92
2022/06/26 06:05:34;;;;;;;10.82;9.68;;;24.80;80.80;;;;;;6243863;23;19996;-92
2022/06/26 06:08:01;;;;;;;10.18;8.75;;;24.90;81.00;;;;;;6218000;23;20012;-91
2022/06/26 06:10:27;;;;;;;9.35;8.43;;;25.00;80.40;;;;;;6217746;23;20019;-92
2022/06/26 06:12:54;;;;;;;9.27;7.72;;;25.20;80.50;;;;;;6218756;23;20011;-92
2022/06/26 06:15:23;;;;;;;8.13;6.70;;;25.40;79.40;;;;;;6242423;23;20015;-92
2022/06/26 06:17:52;;;;;;;7.63;6.65;;;25.50;76.20;;;;;;6244273;23;20015;-91
2022/06/26 06:20:21;;;;;;;6.32;5.72;;;25.60;75.80;;;;;;6245569;23;20011;-91
2022/06/26 06:22:53;;;;;;;7.40;6.15;;;25.80;74.90;;;;;;6243959;23;20012;-92
2022/06/26 06:25:23;;;;;;;6.50;5.40;;;25.90;74.00;;;;;;6243783;23;20432;-91
2022/06/26 06:27:49;;;;;;;5.38;4.90;;;26.00;73.60;;;;;;6243687;23;20008;-90
2022/06/26 06:30:20;;;;;;;4.32;3.92;;;26.00;71.00;;;;;;6243631;23;20035;-92
2022/06/26 06:32:48;;;;;;;5.00;4.30;;;26.00;70.00;;;;;;6244019;23;20008;-92
2022/06/26 06:35:40;;;;;;;5.35;4.85;;;25.90;69.80;;;;;;6238287;23;20024;-93
2022/06/26 06:38:08;;;;;;;6.95;5.80;;;25.90;70.40;;;;;;6244569;23;20083;-92
2022/06/26 06:40:34;;;;;;;9.80;7.07;;;25.90;72.20;;;;;;6244666;23;20000;-92
2022/06/26 06:43:01;;;;;;;9.35;8.32;;;25.90;73.50;;;;;;6244334;23;20012;-90
2022/06/26 06:45:45;;;;;;;8.95;8.13;;;26.00;74.50;;;;;;6244034;23;20011;-88
2022/06/26 06:48:11;;;;;;;8.55;7.75;;;26.10;74.40;;;;;;6238746;23;20472;-89
2022/06/26 06:50:37;;;;;;;12.45;8.73;;;26.10;74.40;;;;;;6249950;23;20012;-88
2022/06/26 06:53:04;;;;;;;10.13;7.90;;;26.20;74.40;;;;;;6240756;23;20731;-89
2022/06/26 06:55:30;;;;;;;7.50;6.80;;;26.10;74.40;;;;;;6240727;23;20103;-88
2022/06/26 06:57:58;;;;;;;6.65;5.97;;;26.20;73.70;;;;;;6241580;22;20011;-86
2022/06/26 07:00:24;;;;;;;6.40;4.97;;;26.20;73.00;;;;;;6213746;23;20008;-87
2022/06/26 07:02:51;;;;;;;6.07;5.00;;;26.20;71.00;;;;;;6238089;23;20015;-88
2022/06/26 07:05:19;;;;;;;5.50;4.82;;;26.20;70.00;;;;;;6240164;23;20032;-93
2022/06/26 07:07:48;;;;;;;4.00;3.70;;;26.10;70.20;;;;;;6242833;23;20000;-94
2022/06/26 07:10:14;;;;;;;3.88;3.58;;;26.10;68.90;;;;;;6219884;23;20004;-93
2022/06/26 07:12:40;;;;;;;5.28;4.78;;;26.10;68.70;;;;;;6244343;23;20015;-95
2022/06/26 07:15:06;;;;;;;5.13;4.13;;;26.10;67.80;;;;;;6245910;23;20115;-93
2022/06/26 07:17:33;;;;;;;4.70;3.72;;;26.20;68.50;;;;;;6243992;23;20004;-92
2022/06/26 07:19:58;;;;;;;4.40;4.00;;;26.20;68.60;;;;;;6243906;23;20074;-92
2022/06/26 07:22:25;;;;;;;7.43;4.53;;;26.30;68.00;;;;;;6243782;23;20004;-92
2022/06/26 07:25:01;;;;;;;4.85;4.10;;;26.40;68.50;;;;;;6244103;23;20004;-93
2022/06/26 07:27:47;;;;;;;4.88;4.32;;;26.40;68.50;;;;;;6242934;23;20044;-91
2022/06/26 07:30:15;;;;;;;4.68;4.28;;;26.40;68.20;;;;;;6243818;23;20012;-91
2022/06/26 07:35:55;;;;;;;5.15;4.43;;;26.60;68.20;;;;;;6243389;23;20138;-93
2022/06/26 07:38:22;;;;;;;5.32;4.88;;;26.60;67.90;;;;;;6243563;23;20015;-91
2022/06/26 07:40:50;;;;;;;5.53;5.03;;;26.60;68.40;;;;;;6243858;23;20086;-91
2022/06/26 07:43:16;;;;;;;6.38;5.15;;;26.70;68.40;;;;;;6243811;23;20040;-92
2022/06/26 07:45:42;;;;;;;5.55;5.05;;;26.70;68.70;;;;;;6243308;23;20000;-92
2022/06/26 07:48:17;;;;;;;5.53;4.93;;;26.80;68.10;;;;;;6244053;23;20443;-93
2022/06/26 07:50:43;;;;;;;4.82;4.40;;;26.80;67.60;;;;;;6244415;23;20019;-91
2022/06/26 07:53:10;;;;;;;5.82;4.53;;;26.90;67.70;;;;;;6242969;23;20040;-89
2022/06/26 07:55:38;;;;;;;5.90;4.70;;;27.00;67.00;;;;;;6244439;22;20011;-93
2022/06/26 07:58:04;;;;;;;4.82;4.43;;;27.10;65.80;;;;;;6239758;22;20012;-93
2022/06/26 08:00:30;;;;;;;5.05;4.53;;;27.20;66.90;;;;;;6240504;22;20082;-92
2022/06/26 08:03:07;;;;;;;5.10;4.60;;;27.30;65.20;;;;;;6268372;22;20089;-89
2022/06/26 08:05:33;;;;;;;4.47;4.07;;;27.40;65.00;;;;;;6242416;22;20015;-90
2022/06/26 08:07:59;;;;;;;5.30;4.43;;;27.60;64.30;;;;;;6242563;22;20011;-93
2022/06/26 08:10:25;;;;;;;5.13;4.47;;;27.80;64.30;;;;;;6243081;23;20034;-91
2022/06/26 08:12:54;;;;;;;5.40;4.90;;;27.90;63.20;;;;;;6239795;22;20123;-88
2022/06/26 08:15:20;;;;;;;6.25;4.60;;;27.90;63.00;;;;;;6239749;23;20012;-91
2022/06/26 08:17:46;;;;;;;6.25;4.40;;;27.80;62.90;;;;;;6244868;22;20001;-92
2022/06/26 08:20:16;;;;;;;5.57;4.95;;;27.80;62.80;;;;;;6243655;22;20011;-92
2022/06/26 08:22:43;;;;;;;5.50;4.70;;;27.80;63.10;;;;;;6242429;22;20463;-88
2022/06/26 08:25:09;;;;;;;4.80;4.40;;;27.90;63.10;;;;;;6240144;22;20016;-88
2022/06/26 08:27:35;;;;;;;5.55;5.00;;;28.00;62.10;;;;;;6237541;23;20008;-91
2022/06/26 08:30:04;;;;;;;6.85;4.95;;;28.00;62.30;;;;;;6242326;23;20404;-91
2022/06/26 08:32:37;;;;;;;5.50;5.00;;;28.10;62.90;;;;;;6244394;22;20393;-92
2022/06/26 08:35:08;;;;;;;5.70;5.20;;;28.20;62.70;;;;;;6244323;22;20020;-92
2022/06/26 08:37:34;;;;;;;5.90;5.40;;;28.30;62.20;;;;;;6244113;22;20008;-92
2022/06/26 08:40:00;;;;;;;6.50;5.07;;;28.40;62.30;;;;;;6244600;23;20081;-92
2022/06/26 08:42:30;;;;;;;5.95;5.07;;;28.50;62.20;;;;;;6245668;23;20008;-92
2022/06/26 08:44:57;;;;;;;7.88;5.35;;;28.60;60.70;;;;;;6244832;23;20008;-91
2022/06/26 08:47:25;;;;;;;6.80;6.20;;;28.70;60.50;;;;;;6246360;22;20007;-92
2022/06/26 08:49:52;;;;;;;6.50;5.90;;;28.80;60.70;;;;;;6219836;23;20035;-93
2022/06/26 08:52:20;;;;;;;6.40;5.80;;;28.90;60.40;;;;;;6243009;22;20092;-88
2022/06/26 08:54:48;;;;;;;6.53;5.85;;;28.90;59.70;;;;;;6237851;23;20012;-87
2022/06/26 08:57:15;;;;;;;6.50;5.90;;;29.00;60.40;;;;;;6241365;22;20012;-87
2022/06/26 08:59:41;;;;;;;6.30;5.70;;;29.10;59.70;;;;;;6239996;22;20445;-87
2022/06/26 09:02:08;;;;;;;6.80;6.20;;;29.20;60.60;;;;;;6239922;23;20127;-88
2022/06/26 09:04:36;;;;;;;6.40;5.85;;;29.40;59.90;;;;;;6240006;22;20000;-88
2022/06/26 09:07:05;;;;;;;8.43;6.28;;;29.50;59.00;;;;;;6243602;22;20014;-87
2022/06/26 09:09:31;;;;;;;6.40;5.88;;;29.60;59.10;;;;;;6211426;23;20038;-88
2022/06/26 09:11:59;;;;;;;6.35;5.82;;;29.70;58.20;;;;;;6239084;22;20008;-86
2022/06/26 09:14:28;;;;;;;14.50;12.07;;;29.70;57.40;;;;;;6237172;23;20016;-86
2022/06/26 09:16:54;;;;;;;6.75;5.68;;;29.80;56.50;;;;;;6242253;23;20054;-92
2022/06/26 09:19:26;;;;;;;7.35;6.07;;;29.90;56.20;;;;;;6246308;22;20008;-93
2022/06/26 09:22:04;;;;;;;7.00;6.30;;;29.90;57.20;;;;;;6246268;22;20012;-92
2022/06/26 09:24:30;;;;;;;7.15;6.55;;;29.80;57.50;;;;;;6245291;23;20133;-91
2022/06/26 09:27:10;;;;;;;7.65;6.65;;;29.80;57.80;;;;;;6244972;23;20436;-91
2022/06/26 09:29:39;;;;;;;6.32;5.72;;;29.80;57.40;;;;;;6244318;23;20031;-93
2022/06/26 09:32:12;;;;;;;6.38;5.88;;;29.70;57.40;;;;;;6245805;22;20066;-91
2022/06/26 09:34:44;;;;;;;9.50;6.75;;;29.60;57.20;;;;;;6246286;22;20083;-92
2022/06/26 09:37:10;;;;;;;5.68;5.20;;;29.60;57.30;;;;;;6245110;23;20383;-93
2022/06/26 09:39:37;;;;;;;5.90;5.40;;;29.60;57.00;;;;;;6244726;23;20008;-91
2022/06/26 09:42:19;;;;;;;6.13;5.63;;;29.60;57.20;;;;;;6244548;23;20043;-91
2022/06/26 09:44:47;;;;;;;7.50;6.13;;;29.70;57.00;;;;;;6241018;23;20459;-87
2022/06/26 09:47:28;;;;;;;6.57;5.97;;;29.80;57.20;;;;;;6239814;22;20519;-88
2022/06/26 09:49:56;;;;;;;5.38;4.32;;;29.90;56.50;;;;;;6239856;22;20031;-87
2022/06/26 09:52:24;;;;;;;7.47;5.15;;;29.90;53.10;;;;;;6237813;23;20004;-88
2022/06/26 09:54:51;;;;;;;5.10;4.30;;;30.00;54.90;;;;;;6213283;23;20073;-87
2022/06/26 09:57:18;;;;;;;5.38;4.47;;;29.90;54.10;;;;;;6253026;23;20510;-89
2022/06/26 09:59:44;;;;;;;5.22;4.72;;;29.90;54.40;;;;;;6237197;23;20008;-88
2022/06/26 10:07:49;;;;;;;7.57;4.93;;;30.20;55.10;;;;;;6240408;23;20016;-88
2022/06/26 10:10:21;;;;;;;5.63;5.13;;;30.30;54.60;;;;;;6237229;23;20014;-87
2022/06/26 10:12:52;;;;;;;5.65;5.00;;;30.30;55.10;;;;;;6236795;23;20024;-87
2022/06/26 10:15:20;;;;;;;5.00;4.53;;;30.30;55.20;;;;;;6238875;22;20008;-86
2022/06/26 10:18:25;;;;;;;5.00;4.45;;;30.20;54.20;;;;;;6238704;22;20079;-87
2022/06/26 10:20:54;;;;;;;7.85;4.45;;;30.20;55.10;;;;;;6238686;22;20340;-88
2022/06/26 10:23:38;;;;;;;4.70;4.30;;;30.20;54.90;;;;;;6238775;22;20012;-87
2022/06/26 10:26:15;;;;;;;7.05;4.20;;;30.20;55.00;;;;;;6236944;23;20004;-87
2022/06/26 10:29:02;;;;;;;4.85;4.03;;;30.20;54.60;;;;;;6238925;22;20005;-87
2022/06/26 10:31:44;;;;;;;4.13;3.80;;;30.30;54.40;;;;;;6239581;22;20008;-88
2022/06/26 10:34:21;;;;;;;4.35;4.03;;;30.30;54.60;;;;;;6264741;22;20075;-88
2022/06/26 10:37:06;;;;;;;4.53;4.10;;;30.30;54.80;;;;;;6238209;23;20750;-88
2022/06/26 10:39:45;;;;;;;3.97;3.67;;;30.30;54.70;;;;;;6241987;22;20092;-93
2022/06/26 10:45:02;;;;;;;3.53;3.33;;;30.30;53.70;;;;;;6245248;23;20004;-92
2022/06/26 10:47:41;;;;;;;4.22;3.90;;;30.30;53.10;;;;;;6245217;23;20008;-92
2022/06/26 10:50:22;;;;;;;3.97;3.60;;;30.20;53.60;;;;;;6217368;23;20033;-92
2022/06/26 10:52:48;;;;;;;4.30;3.90;;;30.10;53.50;;;;;;6245011;22;20004;-90
2022/06/26 10:55:14;;;;;;;3.97;3.67;;;30.00;53.40;;;;;;6245939;22;20054;-93
2022/06/26 10:57:40;;;;;;;4.22;3.88;;;29.90;54.50;;;;;;6237955;23;20440;-87
2022/06/26 11:00:08;;;;;;;4.38;3.70;;;29.90;54.40;;;;;;6238879;23;20020;-87
2022/06/26 11:02:38;;;;;;;4.25;3.95;;;29.90;53.60;;;;;;6238547;22;20015;-87
2022/06/26 11:05:06;;;;;;;4.50;3.95;;;29.90;53.90;;;;;;6239022;22;20081;-88
2022/06/26 11:07:43;;;;;;;7.03;4.20;;;29.90;53.10;;;;;;6211718;23;20008;-87
2022/06/26 11:10:20;;;;;;;4.50;4.10;;;30.00;53.90;;;;;;6238196;22;20012;-88
2022/06/26 11:12:49;;;;;;;4.47;4.15;;;29.90;53.60;;;;;;6248352;22;19996;-88
2022/06/26 11:15:32;;;;;;;4.55;4.18;;;29.90;54.40;;;;;;6237901;22;20008;-87
2022/06/26 11:17:59;;;;;;;4.45;4.05;;;29.90;54.10;;;;;;6237271;23;20123;-88
2022/06/26 11:23:22;;;;;;;4.68;4.32;;;30.00;53.40;;;;;;6238371;23;20742;-86
2022/06/26 11:25:53;;;;;;;4.60;4.20;;;30.10;53.30;;;;;;6239806;22;20439;-92
2022/06/26 11:28:19;;;;;;;4.78;4.38;;;30.20;52.70;;;;;;6243220;23;20078;-90
2022/06/26 11:30:46;;;;;;;4.03;3.72;;;30.30;51.90;;;;;;6242081;23;20008;-89
2022/06/26 11:33:24;;;;;;;4.50;4.10;;;30.40;52.70;;;;;;6253114;23;20035;-92
2022/06/26 11:35:50;;;;;;;4.03;3.72;;;30.60;51.80;;;;;;6217549;23;20035;-90
2022/06/26 11:38:17;;;;;;;4.28;3.97;;;30.70;51.20;;;;;;6243493;22;20390;-91
2022/06/26 11:40:43;;;;;;;5.13;3.80;;;30.80;51.20;;;;;;6243555;22;20031;-92
2022/06/26 11:43:11;;;;;;;4.70;3.67;;;30.90;51.40;;;;;;6244269;22;20066;-93
2022/06/26 11:45:39;;;;;;;3.60;3.30;;;31.00;51.00;;;;;;6242307;23;20039;-91
2022/06/26 11:48:17;;;;;;;8.57;3.58;;;31.00;51.80;;;;;;6242334;23;20004;-92
2022/06/26 11:50:54;;;;;;;4.05;3.50;;;31.10;51.40;;;;;;6237390;23;20114;-86
2022/06/26 11:53:25;;;;;;;3.47;3.17;;;31.20;50.20;;;;;;6235815;23;20020;-86
2022/06/26 11:55:53;;;;;;;3.88;3.50;;;31.30;49.50;;;;;;6237605;22;20008;-87
2022/06/26 11:58:25;;;;;;;3.40;3.10;;;31.20;48.40;;;;;;6238294;22;20027;-86
2022/06/26 12:01:10;;;;;;;4.18;3.63;;;31.30;48.90;;;;;;6235916;23;20023;-87
2022/06/26 12:03:48;;;;;;;3.90;3.60;;;31.30;49.10;;;;;;6236260;23;20016;-90
2022/06/26 12:06:25;;;;;;;3.63;3.33;;;31.30;49.60;;;;;;6237762;23;20114;-87
2022/06/26 12:08:51;;;;;;;3.80;3.50;;;31.10;50.10;;;;;;6235129;23;20012;-87
2022/06/26 12:11:17;;;;;;;4.68;3.25;;;31.10;50.60;;;;;;6238414;23;20012;-90
2022/06/26 12:13:43;;;;;;;3.88;3.55;;;31.10;49.70;;;;;;6236020;23;20016;-87
2022/06/26 12:16:10;;;;;;;4.10;3.70;;;31.20;50.50;;;;;;6236506;23;20023;-87
2022/06/26 12:18:38;;;;;;;4.20;3.78;;;31.20;50.20;;;;;;6247492;22;20344;-86
2022/06/26 12:21:20;;;;;;;3.50;3.20;;;31.20;49.90;;;;;;6236683;22;20035;-88
2022/06/26 12:23:49;;;;;;;3.47;3.17;;;31.30;49.60;;;;;;6234221;23;20043;-89
2022/06/26 12:26:22;;;;;;;3.50;3.20;;;31.30;49.20;;;;;;6235400;23;20008;-88
2022/06/26 12:28:50;;;;;;;3.42;3.22;;;31.40;49.80;;;;;;6237737;22;20004;-88
2022/06/26 12:31:19;;;;;;;4.57;3.40;;;31.40;48.90;;;;;;6235630;23;20091;-87
2022/06/26 12:33:46;;;;;;;4.20;3.80;;;31.30;49.30;;;;;;6235955;23;20559;-88
2022/06/26 12:36:12;;;;;;;4.00;3.70;;;31.20;48.70;;;;;;6236674;23;20099;-91
2022/06/26 12:38:39;;;;;;;3.33;2.95;;;31.10;49.40;;;;;;6241467;23;20008;-90
2022/06/26 12:41:16;;;;;;;3.63;3.33;;;31.00;50.10;;;;;;6243367;22;20016;-90
2022/06/26 12:43:49;;;;;;;4.82;3.53;;;31.00;50.40;;;;;;6243781;22;20019;-91
2022/06/26 12:46:15;;;;;;;4.13;3.22;;;31.00;49.80;;;;;;6242705;23;20015;-91
2022/06/26 12:48:42;;;;;;;3.97;3.58;;;31.00;49.30;;;;;;6243601;22;20004;-93
2022/06/26 12:51:08;;;;;;;3.97;3.60;;;31.10;49.70;;;;;;6267904;22;20622;-91
2022/06/26 12:53:34;;;;;;;3.60;3.30;;;31.10;49.40;;;;;;6242104;23;20023;-91
2022/06/26 12:56:00;;;;;;;3.92;3.60;;;31.10;49.20;;;;;;6241537;23;20015;-88
2022/06/26 12:58:27;;;;;;;3.70;3.40;;;31.10;49.60;;;;;;6238186;22;20097;-88
2022/06/26 13:00:53;;;;;;;3.67;3.33;;;31.20;49.20;;;;;;6242630;22;20012;-90
2022/06/26 13:03:19;;;;;;;3.83;3.53;;;31.30;48.60;;;;;;6239560;22;20016;-89
2022/06/26 13:05:45;;;;;;;3.90;3.60;;;31.40;48.70;;;;;;6237975;22;20012;-86
2022/06/26 13:08:14;;;;;;;4.28;3.90;;;31.40;48.70;;;;;;6239919;23;20008;-93
2022/06/26 13:10:41;;;;;;;4.10;3.67;;;31.30;48.80;;;;;;6242708;23;20012;-92
2022/06/26 13:13:07;;;;;;;3.63;3.33;;;31.30;48.90;;;;;;6241962;23;20021;-92
2022/06/26 13:15:33;;;;;;;3.70;3.40;;;31.30;49.10;;;;;;6243131;22;20016;-92